New Knoxville, Ohio
Current Conditions -  °F | °C
As of 3:53 PM on Sunday 23 Nov 2014 (Local Time) from KAXV Reporting Station
Overcast Overcast  
Wind Chill: 57°   Ceiling: 5000
Heat Index: 57°   Visibility: 10mi
Dew Point: 45°   Wind: 13mph
Humidity: 63%   Direction: 120°ESE
Pressure: 29.64"   Gusts: NA
Location:  40.49°N, 84.31°W
Report Text: KAXV 232053Z AUTO 12011KT 10SM BKN050 OVC100 14/07 A2964 RMK AO2
Loading
Personal Weather Stations






























Interactive Weather Map New forecast layout! Learn more

10-Day Weather Forecast

Advertisements
Track Severe Weather on mobile